Terminal Aerodrome Forecast
Issued by NWS

Home | Current Version | Previous Version | Text Only | Print | Product List | Glossary On
Versions: 1 2 3 4 5 6 7 8 9 10 11 12 13 14 15 16 17 18 19
000
FTUS44 KLZK 292300
TAFHRO
TAF
KHRO 292339Z 3000/3024 15008KT 6SM -SHRA BR VCTS SCT015 OVC040CB
      TEMPO 3000/3004 4SM -TSRA BR SCT015 OVC025CB
     FM300400 30010KT 6SM BR VCSH SCT005 OVC020
     FM300900 31008KT 5SM BR VCSH BKN005 OVC020
     FM301300 29008KT P6SM SCT012 OVC025
     FM302200 33010KT P6SM SCT020=

USA.gov is the U.S. government's official web portal to all federal, state and local government web resources and services.